sensor_id;sensor_type;location;lat;lon;timestamp;P1;durP1;ratioP1;P2;durP2;ratioP2
13849;SDS011;6995;52.618;13.488;2022-07-12T00:00:12;21.30;;;19.90;;
13849;SDS011;6995;52.618;13.488;2022-07-12T00:02:38;21.13;;;19.77;;
13849;SDS011;6995;52.618;13.488;2022-07-12T00:05:04;19.90;;;18.80;;
13849;SDS011;6995;52.618;13.488;2022-07-12T00:07:30;17.23;;;16.33;;
13849;SDS011;6995;52.618;13.488;2022-07-12T00:09:56;20.53;;;19.07;;
13849;SDS011;6995;52.618;13.488;2022-07-12T00:12:21;20.57;;;19.47;;
13849;SDS011;6995;52.618;13.488;2022-07-12T00:14:47;18.10;;;17.20;;
13849;SDS011;6995;52.618;13.488;2022-07-12T00:17:14;20.35;;;19.10;;
13849;SDS011;6995;52.618;13.488;2022-07-12T00:19:40;20.00;;;18.87;;
13849;SDS011;6995;52.618;13.488;2022-07-12T00:22:05;19.50;;;18.47;;
13849;SDS011;6995;52.618;13.488;2022-07-12T00:24:31;19.00;;;18.10;;
13849;SDS011;6995;52.618;13.488;2022-07-12T00:26:56;19.13;;;18.03;;
13849;SDS011;6995;52.618;13.488;2022-07-12T00:29:22;20.83;;;19.70;;
13849;SDS011;6995;52.618;13.488;2022-07-12T00:31:48;19.90;;;18.57;;
13849;SDS011;6995;52.618;13.488;2022-07-12T00:34:13;21.67;;;20.60;;
13849;SDS011;6995;52.618;13.488;2022-07-12T00:36:39;21.33;;;19.93;;
13849;SDS011;6995;52.618;13.488;2022-07-12T00:39:05;21.30;;;20.10;;
13849;SDS011;6995;52.618;13.488;2022-07-12T00:41:30;22.50;;;21.30;;
13849;SDS011;6995;52.618;13.488;2022-07-12T00:43:56;21.90;;;20.90;;
13849;SDS011;6995;52.618;13.488;2022-07-12T00:46:22;23.37;;;22.13;;
13849;SDS011;6995;52.618;13.488;2022-07-12T00:48:49;26.00;;;24.67;;
13849;SDS011;6995;52.618;13.488;2022-07-12T00:51:17;24.87;;;23.77;;
13849;SDS011;6995;52.618;13.488;2022-07-12T00:53:43;24.57;;;23.33;;
13849;SDS011;6995;52.618;13.488;2022-07-12T00:56:10;25.03;;;23.83;;
13849;SDS011;6995;52.618;13.488;2022-07-12T00:58:37;25.53;;;24.37;;
13849;SDS011;6995;52.618;13.488;2022-07-12T01:01:04;26.97;;;25.57;;
13849;SDS011;6995;52.618;13.488;2022-07-12T01:03:30;28.30;;;26.73;;
13849;SDS011;6995;52.618;13.488;2022-07-12T01:05:55;27.70;;;26.10;;
13849;SDS011;6995;52.618;13.488;2022-07-12T01:08:21;29.37;;;27.73;;
13849;SDS011;6995;52.618;13.488;2022-07-12T01:10:49;31.93;;;30.40;;
13849;SDS011;6995;52.618;13.488;2022-07-12T01:13:15;34.47;;;32.87;;
13849;SDS011;6995;52.618;13.488;2022-07-12T01:15:41;31.93;;;30.33;;
13849;SDS011;6995;52.618;13.488;2022-07-12T01:18:07;32.73;;;31.27;;
13849;SDS011;6995;52.618;13.488;2022-07-12T01:20:35;39.30;;;37.50;;
13849;SDS011;6995;52.618;13.488;2022-07-12T01:23:01;33.57;;;31.87;;
13849;SDS011;6995;52.618;13.488;2022-07-12T01:25:27;33.50;;;31.97;;
13849;SDS011;6995;52.618;13.488;2022-07-12T01:27:53;32.37;;;30.93;;
13849;SDS011;6995;52.618;13.488;2022-07-12T01:30:19;33.43;;;31.77;;
13849;SDS011;6995;52.618;13.488;2022-07-12T01:32:45;32.47;;;30.87;;
13849;SDS011;6995;52.618;13.488;2022-07-12T01:35:11;34.83;;;33.13;;
13849;SDS011;6995;52.618;13.488;2022-07-12T01:37:37;30.73;;;29.43;;
13849;SDS011;6995;52.618;13.488;2022-07-12T01:40:06;33.97;;;32.27;;
13849;SDS011;6995;52.618;13.488;2022-07-12T01:42:33;31.00;;;29.47;;
13849;SDS011;6995;52.618;13.488;2022-07-12T01:45:00;35.47;;;33.57;;
13849;SDS011;6995;52.618;13.488;2022-07-12T01:47:29;33.27;;;31.67;;
13849;SDS011;6995;52.618;13.488;2022-07-12T01:49:56;29.03;;;27.67;;
13849;SDS011;6995;52.618;13.488;2022-07-12T01:52:22;33.77;;;32.23;;
13849;SDS011;6995;52.618;13.488;2022-07-12T01:54:48;27.03;;;25.73;;
13849;SDS011;6995;52.618;13.488;2022-07-12T01:57:14;31.83;;;30.03;;
13849;SDS011;6995;52.618;13.488;2022-07-12T01:59:40;25.17;;;23.87;;
13849;SDS011;6995;52.618;13.488;2022-07-12T02:02:07;25.60;;;24.27;;
13849;SDS011;6995;52.618;13.488;2022-07-12T02:04:33;28.07;;;26.67;;
13849;SDS011;6995;52.618;13.488;2022-07-12T02:06:59;25.07;;;23.87;;
13849;SDS011;6995;52.618;13.488;2022-07-12T02:09:25;26.60;;;25.33;;
13849;SDS011;6995;52.618;13.488;2022-07-12T02:11:51;24.10;;;22.83;;
13849;SDS011;6995;52.618;13.488;2022-07-12T02:14:18;23.17;;;22.07;;
13849;SDS011;6995;52.618;13.488;2022-07-12T02:16:44;25.87;;;24.27;;
13849;SDS011;6995;52.618;13.488;2022-07-12T02:19:10;20.50;;;19.50;;
13849;SDS011;6995;52.618;13.488;2022-07-12T02:21:37;23.83;;;22.63;;
13849;SDS011;6995;52.618;13.488;2022-07-12T02:24:03;23.07;;;21.97;;
13849;SDS011;6995;52.618;13.488;2022-07-12T02:26:29;23.00;;;21.83;;
13849;SDS011;6995;52.618;13.488;2022-07-12T02:28:55;22.27;;;21.07;;
13849;SDS011;6995;52.618;13.488;2022-07-12T02:31:21;24.13;;;22.87;;
13849;SDS011;6995;52.618;13.488;2022-07-12T02:33:46;21.33;;;20.20;;
13849;SDS011;6995;52.618;13.488;2022-07-12T02:36:12;24.33;;;23.03;;
13849;SDS011;6995;52.618;13.488;2022-07-12T02:38:38;24.13;;;22.90;;
13849;SDS011;6995;52.618;13.488;2022-07-12T02:41:03;20.83;;;19.83;;
13849;SDS011;6995;52.618;13.488;2022-07-12T02:43:30;24.30;;;22.93;;
13849;SDS011;6995;52.618;13.488;2022-07-12T02:46:03;24.57;;;22.97;;
13849;SDS011;6995;52.618;13.488;2022-07-12T02:48:31;24.70;;;23.50;;
13849;SDS011;6995;52.618;13.488;2022-07-12T02:50:58;23.87;;;22.57;;
13849;SDS011;6995;52.618;13.488;2022-07-12T02:53:24;27.37;;;25.80;;
13849;SDS011;6995;52.618;13.488;2022-07-12T02:55:50;28.67;;;27.37;;
13849;SDS011;6995;52.618;13.488;2022-07-12T02:58:15;29.50;;;28.00;;
13849;SDS011;6995;52.618;13.488;2022-07-12T03:00:41;25.50;;;24.20;;
13849;SDS011;6995;52.618;13.488;2022-07-12T03:03:08;28.43;;;27.00;;
13849;SDS011;6995;52.618;13.488;2022-07-12T03:05:34;25.73;;;24.37;;
13849;SDS011;6995;52.618;13.488;2022-07-12T03:08:00;27.90;;;26.40;;
13849;SDS011;6995;52.618;13.488;2022-07-12T03:10:27;26.17;;;24.87;;
13849;SDS011;6995;52.618;13.488;2022-07-12T03:12:53;27.07;;;25.57;;
13849;SDS011;6995;52.618;13.488;2022-07-12T03:15:18;26.27;;;24.83;;
13849;SDS011;6995;52.618;13.488;2022-07-12T03:17:44;28.50;;;27.00;;
13849;SDS011;6995;52.618;13.488;2022-07-12T03:20:10;32.43;;;30.37;;
13849;SDS011;6995;52.618;13.488;2022-07-12T03:22:37;25.53;;;24.10;;
13849;SDS011;6995;52.618;13.488;2022-07-12T03:25:03;40.63;;;38.53;;
13849;SDS011;6995;52.618;13.488;2022-07-12T03:27:29;32.97;;;31.23;;
13849;SDS011;6995;52.618;13.488;2022-07-12T03:29:56;33.50;;;31.47;;
13849;SDS011;6995;52.618;13.488;2022-07-12T03:32:22;35.13;;;33.13;;
13849;SDS011;6995;52.618;13.488;2022-07-12T03:34:49;26.70;;;25.27;;
13849;SDS011;6995;52.618;13.488;2022-07-12T03:37:14;27.60;;;26.27;;
13849;SDS011;6995;52.618;13.488;2022-07-12T03:39:40;27.00;;;25.50;;
13849;SDS011;6995;52.618;13.488;2022-07-12T03:42:06;28.80;;;27.07;;
13849;SDS011;6995;52.618;13.488;2022-07-12T03:44:31;26.63;;;25.10;;
13849;SDS011;6995;52.618;13.488;2022-07-12T03:46:58;24.53;;;23.23;;
13849;SDS011;6995;52.618;13.488;2022-07-12T03:49:24;27.20;;;25.80;;
13849;SDS011;6995;52.618;13.488;2022-07-12T03:51:50;29.50;;;27.90;;
13849;SDS011;6995;52.618;13.488;2022-07-12T03:54:15;29.33;;;27.73;;
13849;SDS011;6995;52.618;13.488;2022-07-12T03:56:41;27.00;;;25.70;;
13849;SDS011;6995;52.618;13.488;2022-07-12T03:59:25;22.53;;;21.33;;
13849;SDS011;6995;52.618;13.488;2022-07-12T04:01:51;22.90;;;21.60;;
13849;SDS011;6995;52.618;13.488;2022-07-12T04:04:17;22.70;;;21.60;;
13849;SDS011;6995;52.618;13.488;2022-07-12T04:06:43;21.67;;;20.67;;
13849;SDS011;6995;52.618;13.488;2022-07-12T04:09:08;24.77;;;23.23;;
13849;SDS011;6995;52.618;13.488;2022-07-12T04:11:34;26.00;;;24.67;;
13849;SDS011;6995;52.618;13.488;2022-07-12T04:14:00;27.80;;;26.00;;
13849;SDS011;6995;52.618;13.488;2022-07-12T04:16:26;29.17;;;27.47;;
13849;SDS011;6995;52.618;13.488;2022-07-12T04:18:52;30.73;;;29.07;;
13849;SDS011;6995;52.618;13.488;2022-07-12T04:21:19;24.30;;;23.10;;
13849;SDS011;6995;52.618;13.488;2022-07-12T04:23:44;25.57;;;24.13;;
13849;SDS011;6995;52.618;13.488;2022-07-12T04:26:10;22.73;;;21.53;;
13849;SDS011;6995;52.618;13.488;2022-07-12T04:28:36;25.20;;;23.80;;
13849;SDS011;6995;52.618;13.488;2022-07-12T04:31:01;35.33;;;33.60;;
13849;SDS011;6995;52.618;13.488;2022-07-12T04:33:27;20.57;;;19.40;;
13849;SDS011;6995;52.618;13.488;2022-07-12T04:35:53;20.80;;;19.60;;
13849;SDS011;6995;52.618;13.488;2022-07-12T04:38:19;22.17;;;20.97;;
13849;SDS011;6995;52.618;13.488;2022-07-12T04:40:44;22.33;;;21.13;;
13849;SDS011;6995;52.618;13.488;2022-07-12T04:43:10;20.87;;;19.77;;
13849;SDS011;6995;52.618;13.488;2022-07-12T04:45:36;20.07;;;18.97;;
13849;SDS011;6995;52.618;13.488;2022-07-12T04:48:02;19.43;;;18.13;;
13849;SDS011;6995;52.618;13.488;2022-07-12T04:50:28;21.60;;;20.17;;
13849;SDS011;6995;52.618;13.488;2022-07-12T04:52:53;20.00;;;18.50;;
13849;SDS011;6995;52.618;13.488;2022-07-12T04:55:19;20.23;;;19.23;;
13849;SDS011;6995;52.618;13.488;2022-07-12T04:57:45;21.60;;;20.40;;
13849;SDS011;6995;52.618;13.488;2022-07-12T05:00:10;20.67;;;19.25;;
13849;SDS011;6995;52.618;13.488;2022-07-12T05:02:36;18.33;;;17.38;;
13849;SDS011;6995;52.618;13.488;2022-07-12T05:05:02;20.63;;;19.60;;
13849;SDS011;6995;52.618;13.488;2022-07-12T05:07:28;23.47;;;21.93;;
13849;SDS011;6995;52.618;13.488;2022-07-12T05:09:54;21.02;;;19.92;;
13849;SDS011;6995;52.618;13.488;2022-07-12T05:12:19;22.50;;;21.30;;
13849;SDS011;6995;52.618;13.488;2022-07-12T05:14:45;23.25;;;21.75;;
13849;SDS011;6995;52.618;13.488;2022-07-12T05:17:10;24.48;;;22.98;;
13849;SDS011;6995;52.618;13.488;2022-07-12T05:19:37;27.40;;;25.73;;
13849;SDS011;6995;52.618;13.488;2022-07-12T05:22:02;22.83;;;21.65;;
13849;SDS011;6995;52.618;13.488;2022-07-12T05:24:28;23.27;;;22.10;;
13849;SDS011;6995;52.618;13.488;2022-07-12T05:26:54;23.40;;;22.35;;
13849;SDS011;6995;52.618;13.488;2022-07-12T05:29:20;24.83;;;23.08;;
13849;SDS011;6995;52.618;13.488;2022-07-12T05:31:45;25.35;;;23.95;;
13849;SDS011;6995;52.618;13.488;2022-07-12T05:34:11;24.92;;;23.52;;
13849;SDS011;6995;52.618;13.488;2022-07-12T05:36:37;24.42;;;23.13;;
13849;SDS011;6995;52.618;13.488;2022-07-12T05:39:03;25.00;;;23.77;;
13849;SDS011;6995;52.618;13.488;2022-07-12T05:41:29;24.45;;;23.10;;
13849;SDS011;6995;52.618;13.488;2022-07-12T05:43:54;26.05;;;24.45;;
13849;SDS011;6995;52.618;13.488;2022-07-12T05:46:20;21.33;;;20.23;;
13849;SDS011;6995;52.618;13.488;2022-07-12T05:48:46;21.65;;;20.17;;
13849;SDS011;6995;52.618;13.488;2022-07-12T05:51:11;19.95;;;18.85;;
13849;SDS011;6995;52.618;13.488;2022-07-12T05:53:55;18.13;;;17.10;;
13849;SDS011;6995;52.618;13.488;2022-07-12T05:56:21;19.30;;;18.30;;
13849;SDS011;6995;52.618;13.488;2022-07-12T05:58:47;19.23;;;18.15;;
13849;SDS011;6995;52.618;13.488;2022-07-12T06:01:12;21.25;;;20.00;;
13849;SDS011;6995;52.618;13.488;2022-07-12T06:03:38;19.63;;;18.52;;
13849;SDS011;6995;52.618;13.488;2022-07-12T06:06:04;19.75;;;18.65;;
13849;SDS011;6995;52.618;13.488;2022-07-12T06:08:29;19.45;;;18.55;;
13849;SDS011;6995;52.618;13.488;2022-07-12T06:10:55;19.30;;;18.30;;
13849;SDS011;6995;52.618;13.488;2022-07-12T06:13:21;19.63;;;18.52;;
13849;SDS011;6995;52.618;13.488;2022-07-12T06:15:46;19.42;;;18.13;;
13849;SDS011;6995;52.618;13.488;2022-07-12T06:18:12;19.80;;;18.63;;
13849;SDS011;6995;52.618;13.488;2022-07-12T06:20:38;20.75;;;19.67;;
13849;SDS011;6995;52.618;13.488;2022-07-12T06:23:04;20.42;;;19.05;;
13849;SDS011;6995;52.618;13.488;2022-07-12T06:25:30;20.15;;;18.60;;
13849;SDS011;6995;52.618;13.488;2022-07-12T06:27:55;20.92;;;19.50;;
13849;SDS011;6995;52.618;13.488;2022-07-12T06:30:24;19.95;;;18.80;;
13849;SDS011;6995;52.618;13.488;2022-07-12T06:32:50;18.73;;;17.83;;
13849;SDS011;6995;52.618;13.488;2022-07-12T06:35:15;21.27;;;19.90;;
13849;SDS011;6995;52.618;13.488;2022-07-12T06:37:41;19.02;;;17.88;;
13849;SDS011;6995;52.618;13.488;2022-07-12T06:40:07;19.90;;;18.67;;
13849;SDS011;6995;52.618;13.488;2022-07-12T06:42:33;20.23;;;19.13;;
13849;SDS011;6995;52.618;13.488;2022-07-12T06:44:59;20.33;;;19.33;;
13849;SDS011;6995;52.618;13.488;2022-07-12T06:47:26;20.27;;;18.98;;
13849;SDS011;6995;52.618;13.488;2022-07-12T06:49:52;20.70;;;19.40;;
13849;SDS011;6995;52.618;13.488;2022-07-12T06:52:18;21.48;;;19.85;;
13849;SDS011;6995;52.618;13.488;2022-07-12T06:54:43;20.77;;;19.33;;
13849;SDS011;6995;52.618;13.488;2022-07-12T06:57:09;20.83;;;19.73;;
13849;SDS011;6995;52.618;13.488;2022-07-12T06:59:35;19.77;;;18.75;;
13849;SDS011;6995;52.618;13.488;2022-07-12T07:02:01;18.70;;;17.70;;
13849;SDS011;6995;52.618;13.488;2022-07-12T07:04:27;18.85;;;17.65;;
13849;SDS011;6995;52.618;13.488;2022-07-12T07:06:52;19.95;;;19.05;;
13849;SDS011;6995;52.618;13.488;2022-07-12T07:09:18;18.77;;;17.67;;
13849;SDS011;6995;52.618;13.488;2022-07-12T07:11:44;19.70;;;18.42;;
13849;SDS011;6995;52.618;13.488;2022-07-12T07:14:10;17.00;;;16.20;;
13849;SDS011;6995;52.618;13.488;2022-07-12T07:16:36;17.77;;;16.77;;
13849;SDS011;6995;52.618;13.488;2022-07-12T07:19:02;17.50;;;16.60;;
13849;SDS011;6995;52.618;13.488;2022-07-12T07:21:27;19.98;;;18.92;;
13849;SDS011;6995;52.618;13.488;2022-07-12T07:23:53;18.13;;;16.63;;
13849;SDS011;6995;52.618;13.488;2022-07-12T07:26:20;18.80;;;17.20;;
13849;SDS011;6995;52.618;13.488;2022-07-12T07:28:46;17.83;;;16.92;;
13849;SDS011;6995;52.618;13.488;2022-07-12T07:31:33;18.42;;;16.95;;
13849;SDS011;6995;52.618;13.488;2022-07-12T07:34:02;18.85;;;17.73;;
13849;SDS011;6995;52.618;13.488;2022-07-12T07:36:28;17.90;;;16.85;;
13849;SDS011;6995;52.618;13.488;2022-07-12T07:38:54;18.75;;;17.67;;
13849;SDS011;6995;52.618;13.488;2022-07-12T07:41:20;20.38;;;19.17;;
13849;SDS011;6995;52.618;13.488;2022-07-12T07:43:46;18.67;;;17.65;;
13849;SDS011;6995;52.618;13.488;2022-07-12T07:46:12;19.90;;;18.55;;
13849;SDS011;6995;52.618;13.488;2022-07-12T07:48:37;18.63;;;17.67;;
13849;SDS011;6995;52.618;13.488;2022-07-12T07:51:03;17.90;;;16.90;;
13849;SDS011;6995;52.618;13.488;2022-07-12T07:53:28;18.73;;;17.73;;
13849;SDS011;6995;52.618;13.488;2022-07-12T07:55:54;20.67;;;19.48;;
13849;SDS011;6995;52.618;13.488;2022-07-12T07:58:20;19.15;;;17.98;;
13849;SDS011;6995;52.618;13.488;2022-07-12T08:00:46;21.33;;;20.00;;
13849;SDS011;6995;52.618;13.488;2022-07-12T08:03:14;19.83;;;18.48;;
13849;SDS011;6995;52.618;13.488;2022-07-12T08:05:39;20.05;;;18.83;;
13849;SDS011;6995;52.618;13.488;2022-07-12T08:08:05;17.92;;;17.05;;
13849;SDS011;6995;52.618;13.488;2022-07-12T08:10:30;20.42;;;19.25;;
13849;SDS011;6995;52.618;13.488;2022-07-12T08:12:56;20.48;;;19.25;;
13849;SDS011;6995;52.618;13.488;2022-07-12T08:15:22;21.38;;;20.15;;
13849;SDS011;6995;52.618;13.488;2022-07-12T08:17:48;20.50;;;19.30;;
13849;SDS011;6995;52.618;13.488;2022-07-12T08:20:13;22.27;;;20.92;;
13849;SDS011;6995;52.618;13.488;2022-07-12T08:22:42;19.30;;;18.42;;
13849;SDS011;6995;52.618;13.488;2022-07-12T08:25:09;20.15;;;19.08;;
13849;SDS011;6995;52.618;13.488;2022-07-12T08:27:35;19.42;;;18.33;;
13849;SDS011;6995;52.618;13.488;2022-07-12T08:30:01;22.38;;;21.08;;
13849;SDS011;6995;52.618;13.488;2022-07-12T08:32:26;19.65;;;18.55;;
13849;SDS011;6995;52.618;13.488;2022-07-12T08:34:52;21.45;;;20.15;;
13849;SDS011;6995;52.618;13.488;2022-07-12T08:37:18;19.60;;;18.70;;
13849;SDS011;6995;52.618;13.488;2022-07-12T08:39:43;20.27;;;19.00;;
13849;SDS011;6995;52.618;13.488;2022-07-12T08:42:09;20.10;;;18.67;;
13849;SDS011;6995;52.618;13.488;2022-07-12T08:44:40;19.67;;;18.67;;
13849;SDS011;6995;52.618;13.488;2022-07-12T08:47:09;20.30;;;18.75;;
13849;SDS011;6995;52.618;13.488;2022-07-12T08:49:35;20.42;;;19.40;;
13849;SDS011;6995;52.618;13.488;2022-07-12T08:55:13;18.67;;;17.65;;
13849;SDS011;6995;52.618;13.488;2022-07-12T08:57:42;18.25;;;17.35;;
13849;SDS011;6995;52.618;13.488;2022-07-12T09:00:08;20.38;;;19.15;;
13849;SDS011;6995;52.618;13.488;2022-07-12T09:05:11;21.38;;;20.27;;
13849;SDS011;6995;52.618;13.488;2022-07-12T09:07:37;20.60;;;19.30;;
13849;SDS011;6995;52.618;13.488;2022-07-12T09:10:04;19.65;;;18.65;;
13849;SDS011;6995;52.618;13.488;2022-07-12T09:12:31;19.23;;;18.00;;
13849;SDS011;6995;52.618;13.488;2022-07-12T09:15:13;19.50;;;18.40;;
13849;SDS011;6995;52.618;13.488;2022-07-12T09:23:00;20.67;;;19.48;;
13849;SDS011;6995;52.618;13.488;2022-07-12T09:25:30;18.35;;;17.45;;
13849;SDS011;6995;52.618;13.488;2022-07-12T09:28:00;19.67;;;18.55;;
13849;SDS011;6995;52.618;13.488;2022-07-12T09:30:32;21.90;;;20.17;;
13849;SDS011;6995;52.618;13.488;2022-07-12T09:33:03;20.27;;;19.25;;
13849;SDS011;6995;52.618;13.488;2022-07-12T09:38:51;17.33;;;16.40;;
13849;SDS011;6995;52.618;13.488;2022-07-12T09:41:27;19.45;;;18.33;;
13849;SDS011;6995;52.618;13.488;2022-07-12T09:43:53;18.17;;;17.23;;
13849;SDS011;6995;52.618;13.488;2022-07-12T09:46:19;17.80;;;16.90;;
13849;SDS011;6995;52.618;13.488;2022-07-12T09:48:45;17.95;;;17.02;;
13849;SDS011;6995;52.618;13.488;2022-07-12T09:51:15;16.33;;;15.52;;
13849;SDS011;6995;52.618;13.488;2022-07-12T09:53:46;17.70;;;16.40;;
13849;SDS011;6995;52.618;13.488;2022-07-12T09:56:13;17.63;;;16.63;;
13849;SDS011;6995;52.618;13.488;2022-07-12T10:01:16;17.25;;;16.45;;
13849;SDS011;6995;52.618;13.488;2022-07-12T10:03:43;17.10;;;16.13;;
13849;SDS011;6995;52.618;13.488;2022-07-12T10:06:11;16.33;;;15.43;;
13849;SDS011;6995;52.618;13.488;2022-07-12T10:08:39;18.48;;;17.40;;
13849;SDS011;6995;52.618;13.488;2022-07-12T10:11:05;19.23;;;17.88;;
13849;SDS011;6995;52.618;13.488;2022-07-12T10:13:32;17.02;;;16.02;;
13849;SDS011;6995;52.618;13.488;2022-07-12T10:16:00;19.08;;;18.08;;
13849;SDS011;6995;52.618;13.488;2022-07-12T10:18:28;18.58;;;17.50;;
13849;SDS011;6995;52.618;13.488;2022-07-12T10:20:54;20.08;;;18.88;;
13849;SDS011;6995;52.618;13.488;2022-07-12T10:25:59;18.95;;;17.95;;
13849;SDS011;6995;52.618;13.488;2022-07-12T10:31:19;16.40;;;15.50;;
13849;SDS011;6995;52.618;13.488;2022-07-12T10:33:48;16.75;;;15.93;;
13849;SDS011;6995;52.618;13.488;2022-07-12T10:36:44;18.10;;;16.90;;
13849;SDS011;6995;52.618;13.488;2022-07-12T10:39:22;18.88;;;17.88;;
13849;SDS011;6995;52.618;13.488;2022-07-12T10:44:37;18.75;;;17.75;;
13849;SDS011;6995;52.618;13.488;2022-07-12T10:47:04;15.30;;;14.60;;
13849;SDS011;6995;52.618;13.488;2022-07-12T10:49:31;18.30;;;17.15;;
13849;SDS011;6995;52.618;13.488;2022-07-12T10:54:35;18.00;;;17.00;;
13849;SDS011;6995;52.618;13.488;2022-07-12T10:57:01;20.23;;;19.05;;
13849;SDS011;6995;52.618;13.488;2022-07-12T10:59:27;17.10;;;16.00;;
13849;SDS011;6995;52.618;13.488;2022-07-12T11:01:55;18.90;;;17.80;;
13849;SDS011;6995;52.618;13.488;2022-07-12T11:04:22;16.55;;;15.75;;
13849;SDS011;6995;52.618;13.488;2022-07-12T11:06:48;17.20;;;16.30;;
13849;SDS011;6995;52.618;13.488;2022-07-12T11:09:17;18.38;;;17.40;;
13849;SDS011;6995;52.618;13.488;2022-07-12T11:11:45;18.92;;;17.92;;
13849;SDS011;6995;52.618;13.488;2022-07-12T11:14:35;18.30;;;17.08;;
13849;SDS011;6995;52.618;13.488;2022-07-12T11:17:00;16.33;;;15.43;;
13849;SDS011;6995;52.618;13.488;2022-07-12T11:19:27;16.48;;;15.35;;
13849;SDS011;6995;52.618;13.488;2022-07-12T11:21:54;15.95;;;15.05;;
13849;SDS011;6995;52.618;13.488;2022-07-12T11:24:27;15.90;;;15.20;;
13849;SDS011;6995;52.618;13.488;2022-07-12T11:26:54;18.05;;;17.00;;
13849;SDS011;6995;52.618;13.488;2022-07-12T11:29:20;16.42;;;15.32;;
13849;SDS011;6995;52.618;13.488;2022-07-12T11:31:47;17.33;;;16.42;;
13849;SDS011;6995;52.618;13.488;2022-07-12T11:34:23;19.38;;;18.00;;
13849;SDS011;6995;52.618;13.488;2022-07-12T11:36:53;16.38;;;15.48;;
13849;SDS011;6995;52.618;13.488;2022-07-12T12:57:03;17.13;;;16.15;;
13849;SDS011;6995;52.618;13.488;2022-07-12T12:59:30;17.58;;;16.48;;
13849;SDS011;6995;52.618;13.488;2022-07-12T13:01:56;14.63;;;13.93;;
13849;SDS011;6995;52.618;13.488;2022-07-12T13:04:29;17.17;;;16.08;;
13849;SDS011;6995;52.618;13.488;2022-07-12T13:06:55;15.70;;;14.90;;
13849;SDS011;6995;52.618;13.488;2022-07-12T13:09:21;15.70;;;14.90;;
13849;SDS011;6995;52.618;13.488;2022-07-12T13:11:47;16.05;;;15.05;;
13849;SDS011;6995;52.618;13.488;2022-07-12T13:14:14;14.85;;;14.10;;
13849;SDS011;6995;52.618;13.488;2022-07-12T13:16:47;15.80;;;15.00;;
13849;SDS011;6995;52.618;13.488;2022-07-12T13:19:13;18.27;;;17.33;;
13849;SDS011;6995;52.618;13.488;2022-07-12T13:21:39;16.38;;;15.57;;
13849;SDS011;6995;52.618;13.488;2022-07-12T13:24:08;15.55;;;14.75;;
13849;SDS011;6995;52.618;13.488;2022-07-12T13:26:36;16.20;;;15.20;;
13849;SDS011;6995;52.618;13.488;2022-07-12T13:29:02;15.32;;;14.38;;
13849;SDS011;6995;52.618;13.488;2022-07-12T13:31:28;16.35;;;15.45;;
13849;SDS011;6995;52.618;13.488;2022-07-12T13:33:54;17.40;;;16.50;;
13849;SDS011;6995;52.618;13.488;2022-07-12T13:36:20;17.30;;;16.20;;
13849;SDS011;6995;52.618;13.488;2022-07-12T13:38:46;15.80;;;14.90;;
13849;SDS011;6995;52.618;13.488;2022-07-12T13:41:13;15.35;;;14.35;;
13849;SDS011;6995;52.618;13.488;2022-07-12T13:43:38;14.38;;;13.55;;
13849;SDS011;6995;52.618;13.488;2022-07-12T13:46:04;14.80;;;13.77;;
13849;SDS011;6995;52.618;13.488;2022-07-12T13:48:30;14.27;;;13.48;;
13849;SDS011;6995;52.618;13.488;2022-07-12T13:50:55;14.15;;;13.35;;
13849;SDS011;6995;52.618;13.488;2022-07-12T13:53:21;16.30;;;15.05;;
13849;SDS011;6995;52.618;13.488;2022-07-12T13:55:47;15.15;;;14.07;;
13849;SDS011;6995;52.618;13.488;2022-07-12T13:58:13;15.05;;;14.23;;
13849;SDS011;6995;52.618;13.488;2022-07-12T14:00:39;16.08;;;15.07;;
13849;SDS011;6995;52.618;13.488;2022-07-12T14:03:05;15.48;;;14.57;;
13849;SDS011;6995;52.618;13.488;2022-07-12T14:05:34;14.98;;;14.15;;
13849;SDS011;6995;52.618;13.488;2022-07-12T14:08:00;14.63;;;13.93;;
13849;SDS011;6995;52.618;13.488;2022-07-12T14:10:26;15.38;;;14.55;;
13849;SDS011;6995;52.618;13.488;2022-07-12T14:12:52;14.25;;;13.45;;
13849;SDS011;6995;52.618;13.488;2022-07-12T14:18:10;16.27;;;15.35;;
13849;SDS011;6995;52.618;13.488;2022-07-12T14:20:36;17.33;;;16.35;;
13849;SDS011;6995;52.618;13.488;2022-07-12T14:23:05;17.35;;;16.20;;
13849;SDS011;6995;52.618;13.488;2022-07-12T14:25:31;21.95;;;20.77;;
13849;SDS011;6995;52.618;13.488;2022-07-12T14:27:57;22.45;;;21.30;;
13849;SDS011;6995;52.618;13.488;2022-07-12T14:30:22;25.15;;;23.65;;
13849;SDS011;6995;52.618;13.488;2022-07-12T14:32:49;18.42;;;17.25;;
13849;SDS011;6995;52.618;13.488;2022-07-12T14:35:27;18.80;;;17.40;;
13849;SDS011;6995;52.618;13.488;2022-07-12T14:37:53;16.98;;;15.90;;
13849;SDS011;6995;52.618;13.488;2022-07-12T14:40:19;19.08;;;18.05;;
13849;SDS011;6995;52.618;13.488;2022-07-12T14:42:44;16.65;;;15.60;;
13849;SDS011;6995;52.618;13.488;2022-07-12T14:45:10;16.52;;;15.63;;
13849;SDS011;6995;52.618;13.488;2022-07-12T14:47:35;15.93;;;15.02;;
13849;SDS011;6995;52.618;13.488;2022-07-12T14:50:01;16.98;;;15.80;;
13849;SDS011;6995;52.618;13.488;2022-07-12T14:52:33;15.10;;;14.30;;
13849;SDS011;6995;52.618;13.488;2022-07-12T14:54:59;15.55;;;14.63;;
13849;SDS011;6995;52.618;13.488;2022-07-12T14:57:24;16.80;;;15.88;;
13849;SDS011;6995;52.618;13.488;2022-07-12T14:59:50;15.48;;;14.48;;
13849;SDS011;6995;52.618;13.488;2022-07-12T15:02:17;12.82;;;12.15;;
13849;SDS011;6995;52.618;13.488;2022-07-12T15:04:42;14.20;;;13.20;;
13849;SDS011;6995;52.618;13.488;2022-07-12T15:07:08;14.70;;;13.80;;
13849;SDS011;6995;52.618;13.488;2022-07-12T15:09:34;16.85;;;15.95;;
13849;SDS011;6995;52.618;13.488;2022-07-12T15:12:00;14.35;;;13.55;;
13849;SDS011;6995;52.618;13.488;2022-07-12T15:14:26;15.50;;;14.00;;
13849;SDS011;6995;52.618;13.488;2022-07-12T15:16:52;16.48;;;15.63;;
13849;SDS011;6995;52.618;13.488;2022-07-12T15:19:20;16.10;;;15.20;;
13849;SDS011;6995;52.618;13.488;2022-07-12T15:21:45;18.27;;;17.17;;
13849;SDS011;6995;52.618;13.488;2022-07-12T15:24:11;16.88;;;15.98;;
13849;SDS011;6995;52.618;13.488;2022-07-12T15:26:37;16.77;;;15.88;;
13849;SDS011;6995;52.618;13.488;2022-07-12T15:29:03;16.98;;;15.98;;
13849;SDS011;6995;52.618;13.488;2022-07-12T15:31:30;19.33;;;17.95;;
13849;SDS011;6995;52.618;13.488;2022-07-12T15:33:56;14.65;;;14.02;;
13849;SDS011;6995;52.618;13.488;2022-07-12T15:38:57;15.18;;;14.27;;
13849;SDS011;6995;52.618;13.488;2022-07-12T15:41:23;15.80;;;15.00;;
13849;SDS011;6995;52.618;13.488;2022-07-12T15:43:49;16.15;;;15.35;;
13849;SDS011;6995;52.618;13.488;2022-07-12T15:46:16;15.23;;;14.43;;
13849;SDS011;6995;52.618;13.488;2022-07-12T15:48:42;16.15;;;15.20;;
13849;SDS011;6995;52.618;13.488;2022-07-12T15:51:08;14.77;;;13.73;;
13849;SDS011;6995;52.618;13.488;2022-07-12T15:53:35;15.00;;;14.30;;
13849;SDS011;6995;52.618;13.488;2022-07-12T15:56:06;14.55;;;13.68;;
13849;SDS011;6995;52.618;13.488;2022-07-12T15:58:35;15.77;;;14.80;;
13849;SDS011;6995;52.618;13.488;2022-07-12T16:01:05;14.43;;;13.60;;
13849;SDS011;6995;52.618;13.488;2022-07-12T16:03:31;15.50;;;14.60;;
13849;SDS011;6995;52.618;13.488;2022-07-12T16:05:58;14.07;;;13.30;;
13849;SDS011;6995;52.618;13.488;2022-07-12T16:08:25;15.07;;;14.27;;